Capewater — PBPQ — position and weather

sailwx.info

Track history (hours):
 
Tides and Currents Weather Stations Pressure Air Temp Water Temp Dewpoint Dewpoint Depression Visibility Wind Speed Wind Dir Waves Ship Positions

Capewater

Last reported at 2015-Aug-03 04:33 UTC. Time now 2015-Aug-03 04:39 UTC.
Position N 51°53' E 004°18'.

Length 100 m; draft 7.7 m.

Type: Tanker. MMSI: 246346000.

Date/timePositionNaut miles runAvg speedWind from/ knotsBaromVisibWave heightAir tempDewpointWater temp
2015-Aug-03 04:33N 51°53' E 004°18'0 0.0
2015-Aug-03 03:30N 51°53' E 004°18'0 0.0
2015-Aug-03 02:33N 51°53' E 004°18'0 0.0
2015-Aug-03 01:33N 51°53' E 004°18'0 0.0
2015-Aug-03 00:33N 51°53' E 004°18'0 0.0
2015-Aug-02 23:33N 51°53' E 004°18'0 0.0
2015-Aug-02 22:33N 51°53' E 004°18'0 0.0
2015-Aug-02 21:30N 51°53' E 004°18'0 0.0
2015-Aug-02 20:31N 51°53' E 004°18'0 0.0
2015-Aug-02 19:30N 51°53' E 004°18'1 0.7
2015-Aug-02 18:33N 51°53' E 004°19'10 9.8
2015-Aug-02 17:34N 51°59' E 004°05'1111.1
2015-Aug-02 16:33N 51°58' E 003°48'2 1.6
2015-Aug-02 15:33N 51°56' E 003°47'0 0.0
2015-Aug-02 14:33N 51°56' E 003°47'0 0.0
2015-Aug-02 13:33N 51°56' E 003°47'0 0.1
2015-Aug-02 12:33N 51°56' E 003°46'0 0.0
2015-Aug-02 11:33N 51°56' E 003°46'0 0.0
2015-Aug-02 10:32N 51°56' E 003°46'0 0.0
2015-Aug-02 09:33N 51°56' E 003°46'0 0.0
2015-Aug-02 08:33N 51°56' E 003°46'7 6.7
2015-Aug-02 07:33N 52°03' E 003°46'1313.2
2015-Aug-02 06:32N 52°16' E 003°47'1212.3
2015-Aug-02 05:33N 52°28' E 003°51'1211.9
2015-Aug-02 04:33N 52°39' E 003°55'1111.5
2015-Aug-02 03:33N 52°51' E 003°59'1111.3
2015-Aug-02 02:33N 53°01' E 004°07'1313.3
2015-Aug-02 01:33N 53°09' E 004°24'1413.6
2015-Aug-02 00:32N 53°22' E 004°34'1212.7
2015-Aug-01 23:33N 53°31' E 004°48'1313.2
2015-Aug-01 22:33N 53°36' E 005°09'1212.1
2015-Aug-01 21:33N 53°40' E 005°28'1211.6
2015-Aug-01 20:33N 53°43' E 005°47'1211.9
2015-Aug-01 19:32N 53°47' E 006°06'4013.3
2015-Aug-01 16:33N 53°57' E 007°11'1414.5
2015-Aug-01 15:33N 54°01' E 007°35'1414.5
2015-Aug-01 14:33N 54°01' E 007°60'1413.7
2015-Aug-01 13:33N 53°59' E 008°23'1212.5
2015-Aug-01 12:33N 53°54' E 008°42'10 9.9
2015-Aug-01 11:33N 53°51' E 008°58'7 6.7
2015-Aug-01 10:33N 53°54' E 009°09'1 0.8
2015-Aug-01 09:07N 53°54' E 009°10'0 0.0
2015-Jul-31 10:27N 53°55' E 009°10'0 0.0
2015-Jul-31 09:21N 53°55' E 009°10'0 0.0
2015-Jul-31 08:33N 53°55' E 009°10'0 0.0
2015-Jul-31 07:33N 53°55' E 009°10'0 0.0
2015-Jul-31 06:33N 53°55' E 009°10'0 0.0
2015-Jul-31 05:27N 53°55' E 009°10'0 0.0
2015-Jul-31 04:33N 53°55' E 009°10'0 0.0
2015-Jul-31 03:30N 53°55' E 009°10'0 0.0
2015-Jul-31 02:27N 53°55' E 009°10'0 0.0
2015-Jul-31 01:34N 53°55' E 009°10'5 4.7
2015-Jul-31 00:34N 53°58' E 009°15'8 7.8
2015-Jul-30 23:33N 54°05' E 009°20'8 8.0
2015-Jul-30 22:33N 54°11' E 009°29'6 5.8
2015-Jul-30 21:33N 54°15' E 009°37'6 5.8
2015-Jul-30 20:33N 54°19' E 009°43'4 3.9
2015-Jul-30 19:33N 54°22' E 009°48'8 8.2
2015-Jul-30 18:33N 54°22' E 010°02'3 2.8
2015-Jul-30 17:33N 54°22' E 010°07'3 3.0
2015-Jul-30 16:33N 54°23' E 010°12'1010.3
2015-Jul-30 15:33N 54°31' E 010°23'1111.4
2015-Jul-30 14:33N 54°35' E 010°41'1111.4
2015-Jul-30 13:33N 54°36' E 011°01'1110.7
2015-Jul-30 12:33N 54°34' E 011°19'1111.1
2015-Jul-30 11:33N 54°29' E 011°36'1110.9
2015-Jul-30 10:33N 54°27' E 011°55'10 9.9
2015-Jul-30 09:33N 54°30' E 012°11'6211.9
2015-Jul-30 04:22N 54°43' E 013°55'2312.4
2015-Jul-30 02:32N 54°39' E 014°34'1312.7
2015-Jul-30 01:30N 54°41' E 014°56'1212.5
2015-Jul-30 00:33N 54°42' E 015°16'10513.0
2015-Jul-29 16:25N 55°04' E 018°16'1113.3
2015-Jul-29 15:34N 55°01' E 018°35'1414.2
2015-Jul-29 14:34N 54°53' E 018°56'1413.5
2015-Jul-29 13:34N 54°40' E 018°58'1313.1
2015-Jul-29 12:34N 54°32' E 018°40'4 3.4
2015-Jul-29 11:27N 54°32' E 018°33'0 0.0
2015-Jul-29 10:33N 54°32' E 018°33'0 0.0
2015-Jul-29 09:33N 54°32' E 018°33'0 0.0
2015-Jul-29 08:33N 54°32' E 018°33'0 0.0
2015-Jul-29 07:33N 54°32' E 018°33'0 0.0
2015-Jul-29 06:33N 54°32' E 018°33'0 0.0
2015-Jul-29 05:33N 54°32' E 018°33'0 0.0
2015-Jul-29 04:33N 54°32' E 018°33'0 0.0
2015-Jul-29 03:33N 54°32' E 018°33'0 0.0
2015-Jul-29 02:33N 54°32' E 018°33'0 0.0
2015-Jul-29 01:33N 54°32' E 018°33'0 0.0
2015-Jul-29 00:33N 54°32' E 018°33'0 0.0
2015-Jul-28 23:33N 54°32' E 018°33'0 0.0
2015-Jul-28 22:33N 54°32' E 018°33'3 2.8
2015-Jul-28 21:34N 54°32' E 018°38'1010.1
2015-Jul-28 20:34N 54°36' E 018°54'1312.6
2015-Jul-28 19:34N 54°49' E 018°56'1313.0
2015-Jul-28 18:33N 54°58' E 018°41'1414.0
2015-Jul-28 17:33N 55°02' E 018°17'11514.0
2015-Jul-28 09:20N 54°39' E 015°02'3512.2
2015-Jul-28 06:29N 54°39' E 014°02'6212.4
2015-Jul-28 01:29N 54°30' E 012°16'1112.1
2015-Jul-28 00:33N 54°24' E 011°59'1413.5
2015-Jul-27 23:33N 54°27' E 011°37'1313.4
2015-Jul-27 22:33N 54°33' E 011°16'1312.6
2015-Jul-27 21:33N 54°35' E 010°54'1413.8
2015-Jul-27 20:33N 54°33' E 010°31'1111.5
2015-Jul-27 19:34N 54°27' E 010°14'6 5.6
2015-Jul-27 18:33N 54°22' E 010°09'4 3.9
2015-Jul-27 17:33N 54°22' E 010°02'8 7.7
2015-Jul-27 16:33N 54°22' E 009°49'5 4.7
2015-Jul-27 15:33N 54°19' E 009°43'5 4.9
2015-Jul-27 14:33N 54°15' E 009°37'8 7.8
2015-Jul-27 13:33N 54°10' E 009°26'7 7.0
2015-Jul-27 12:33N 54°05' E 009°19'7 7.2
2015-Jul-27 11:33N 53°58' E 009°15'2 2.0
2015-Jul-27 10:33N 53°56' E 009°13'4 3.6
2015-Jul-27 09:33N 53°54' E 009°09'2 2.1
2015-Jul-27 08:33N 53°53' E 009°05'2 1.7
2015-Jul-27 07:33N 53°52' E 009°03'1312.6
2015-Jul-27 06:33N 53°53' E 008°42'1413.8
2015-Jul-27 05:33N 53°59' E 008°21'1312.9
2015-Jul-27 04:33N 53°58' E 007°59'1413.5
2015-Jul-27 03:33N 53°55' E 007°36'1313.4
2015-Jul-27 02:33N 53°52' E 007°14'2713.0
2015-Jul-27 00:26N 53°46' E 006°29'1112.5
2015-Jul-26 23:33N 53°43' E 006°11'1211.9
2015-Jul-26 22:33N 53°40' E 005°52'1211.9
2015-Jul-26 21:33N 53°36' E 005°33'1211.8
2015-Jul-26 20:33N 53°32' E 005°14'1211.9
2015-Jul-26 19:34N 53°28' E 004°55'1211.6
2015-Jul-26 18:33N 53°21' E 004°40'1412.6
2015-Jul-26 17:28N 53°09' E 004°30'1112.6
2015-Jul-26 16:34N 52°58' E 004°20'1312.5
2015-Jul-26 15:33N 52°47' E 004°11'1312.7
2015-Jul-26 14:33N 52°37' E 003°60'1313.1
2015-Jul-26 13:33N 52°24' E 003°53'1313.3
2015-Jul-26 12:33N 52°11' E 003°54'1110.8
2015-Jul-26 11:34N 52°01' E 003°59'1312.8
2015-Jul-26 10:33N 51°54' E 004°17'1 1.2
2015-Jul-26 09:31N 51°53' E 004°16'0 0.0
2015-Jul-26 08:25N 51°53' E 004°16'0 0.0
2015-Jul-26 07:31N 51°53' E 004°16'0 0.0
2015-Jul-26 06:13N 51°53' E 004°16'0 0.0
2015-Jul-26 05:25N 51°53' E 004°16'0 0.0
2015-Jul-26 04:13N 51°53' E 004°16'0 0.0
2015-Jul-26 03:25N 51°53' E 004°16'0 0.0
2015-Jul-26 02:31N 51°53' E 004°16'0 0.0
2015-Jul-26 01:25N 51°53' E 004°16'0 0.0
2015-Jul-26 00:31N 51°53' E 004°16'0 0.0
2015-Jul-25 23:31N 51°53' E 004°16'0 0.0
2015-Jul-25 22:13N 51°53' E 004°16'0 0.0
2015-Jul-25 20:31N 51°53' E 004°16'0 0.0
2015-Jul-25 18:31N 51°53' E 004°16'0 0.0
2015-Jul-25 17:28N 51°53' E 004°16'0 0.0
2015-Jul-25 16:31N 51°53' E 004°16'0 0.0
2015-Jul-25 15:31N 51°53' E 004°16'0 0.0
2015-Jul-25 14:31N 51°53' E 004°16'0 0.0
2015-Jul-25 13:31N 51°53' E 004°16'0 0.0
2015-Jul-25 12:31N 51°53' E 004°16'0 0.0
2015-Jul-25 11:25N 51°53' E 004°16'0 0.0
2015-Jul-25 10:32N 51°53' E 004°16'0 0.4
2015-Jul-25 09:33N 51°53' E 004°17'6 5.5
2015-Jul-25 08:34N 51°57' E 004°10'1212.4
2015-Jul-25 07:34N 51°60' E 003°51'1413.5
2015-Jul-25 06:33N 51°57' E 003°29'5112.7
2015-Jul-25 02:33N 51°31' E 002°18'1211.8
2015-Jul-25 01:33N 51°21' E 002°10'1211.6
2015-Jul-25 00:33N 51°12' E 001°58'1211.8
2015-Jul-24 23:33N 51°05' E 001°43'1211.8
2015-Jul-24 22:33N 50°56' E 001°30'9411.8
2015-Jul-24 14:33N 49°53' W 000°20'1313.4
2015-Jul-24 13:33N 49°40' W 000°21'1211.7
2015-Jul-24 12:33N 49°30' W 000°10'1312.7
2015-Jul-24 11:33N 49°26' E 000°08'1313.0
2015-Jul-24 10:33N 49°28' E 000°28'3 3.0
2015-Jul-24 09:29N 49°28' E 000°33'0 0.0
2015-Jul-24 08:32N 49°28' E 000°33'0 0.0
2015-Jul-24 07:32N 49°28' E 000°33'0 0.0
2015-Jul-24 06:32N 49°28' E 000°33'0 0.0
2015-Jul-24 05:32N 49°28' E 000°33'  
Track history (hours):
 
Tides and Currents Weather Stations Pressure Air Temp Water Temp Dewpoint Dewpoint Depression Visibility Wind Speed Wind Dir Waves Ship Positions

Capewater

Last reported at 2015-Aug-03 04:33 UTC. Time now 2015-Aug-03 04:39 UTC.
Position N 51°53' E 004°18'.

Length 100 m; draft 7.7 m.

Type: Tanker. MMSI: 246346000.

Date/timePositionNaut miles runAvg speedWind from/ knotsBaromVisibWave heightAir tempDewpointWater temp
2015-Aug-03 04:33N 51°53' E 004°18'0 0.0
2015-Aug-03 03:30N 51°53' E 004°18'0 0.0
2015-Aug-03 02:33N 51°53' E 004°18'0 0.0
2015-Aug-03 01:33N 51°53' E 004°18'0 0.0
2015-Aug-03 00:33N 51°53' E 004°18'0 0.0
2015-Aug-02 23:33N 51°53' E 004°18'0 0.0
2015-Aug-02 22:33N 51°53' E 004°18'0 0.0
2015-Aug-02 21:30N 51°53' E 004°18'0 0.0
2015-Aug-02 20:31N 51°53' E 004°18'0 0.0
2015-Aug-02 19:30N 51°53' E 004°18'1 0.7
2015-Aug-02 18:33N 51°53' E 004°19'10 9.8
2015-Aug-02 17:34N 51°59' E 004°05'1111.1
2015-Aug-02 16:33N 51°58' E 003°48'2 1.6
2015-Aug-02 15:33N 51°56' E 003°47'0 0.0
2015-Aug-02 14:33N 51°56' E 003°47'0 0.0
2015-Aug-02 13:33N 51°56' E 003°47'0 0.1
2015-Aug-02 12:33N 51°56' E 003°46'0 0.0
2015-Aug-02 11:33N 51°56' E 003°46'0 0.0
2015-Aug-02 10:32N 51°56' E 003°46'0 0.0
2015-Aug-02 09:33N 51°56' E 003°46'0 0.0
2015-Aug-02 08:33N 51°56' E 003°46'7 6.7
2015-Aug-02 07:33N 52°03' E 003°46'1313.2
2015-Aug-02 06:32N 52°16' E 003°47'1212.3
2015-Aug-02 05:33N 52°28' E 003°51'1211.9
2015-Aug-02 04:33N 52°39' E 003°55'1111.5
2015-Aug-02 03:33N 52°51' E 003°59'1111.3
2015-Aug-02 02:33N 53°01' E 004°07'1313.3
2015-Aug-02 01:33N 53°09' E 004°24'1413.6
2015-Aug-02 00:32N 53°22' E 004°34'1212.7
2015-Aug-01 23:33N 53°31' E 004°48'1313.2
2015-Aug-01 22:33N 53°36' E 005°09'1212.1
2015-Aug-01 21:33N 53°40' E 005°28'1211.6
2015-Aug-01 20:33N 53°43' E 005°47'1211.9
2015-Aug-01 19:32N 53°47' E 006°06'4013.3
2015-Aug-01 16:33N 53°57' E 007°11'1414.5
2015-Aug-01 15:33N 54°01' E 007°35'1414.5
2015-Aug-01 14:33N 54°01' E 007°60'1413.7
2015-Aug-01 13:33N 53°59' E 008°23'1212.5
2015-Aug-01 12:33N 53°54' E 008°42'10 9.9
2015-Aug-01 11:33N 53°51' E 008°58'7 6.7
2015-Aug-01 10:33N 53°54' E 009°09'1 0.8
2015-Aug-01 09:07N 53°54' E 009°10'0 0.0
2015-Jul-31 10:27N 53°55' E 009°10'0 0.0
2015-Jul-31 09:21N 53°55' E 009°10'0 0.0
2015-Jul-31 08:33N 53°55' E 009°10'0 0.0
2015-Jul-31 07:33N 53°55' E 009°10'0 0.0
2015-Jul-31 06:33N 53°55' E 009°10'0 0.0
2015-Jul-31 05:27N 53°55' E 009°10'0 0.0
2015-Jul-31 04:33N 53°55' E 009°10'0 0.0
2015-Jul-31 03:30N 53°55' E 009°10'0 0.0
2015-Jul-31 02:27N 53°55' E 009°10'0 0.0
2015-Jul-31 01:34N 53°55' E 009°10'5 4.7
2015-Jul-31 00:34N 53°58' E 009°15'8 7.8
2015-Jul-30 23:33N 54°05' E 009°20'8 8.0
2015-Jul-30 22:33N 54°11' E 009°29'6 5.8
2015-Jul-30 21:33N 54°15' E 009°37'6 5.8
2015-Jul-30 20:33N 54°19' E 009°43'4 3.9
2015-Jul-30 19:33N 54°22' E 009°48'8 8.2
2015-Jul-30 18:33N 54°22' E 010°02'3 2.8
2015-Jul-30 17:33N 54°22' E 010°07'3 3.0
2015-Jul-30 16:33N 54°23' E 010°12'1010.3
2015-Jul-30 15:33N 54°31' E 010°23'1111.4
2015-Jul-30 14:33N 54°35' E 010°41'1111.4
2015-Jul-30 13:33N 54°36' E 011°01'1110.7
2015-Jul-30 12:33N 54°34' E 011°19'1111.1
2015-Jul-30 11:33N 54°29' E 011°36'1110.9
2015-Jul-30 10:33N 54°27' E 011°55'10 9.9
2015-Jul-30 09:33N 54°30' E 012°11'6211.9
2015-Jul-30 04:22N 54°43' E 013°55'2312.4
2015-Jul-30 02:32N 54°39' E 014°34'1312.7
2015-Jul-30 01:30N 54°41' E 014°56'1212.5
2015-Jul-30 00:33N 54°42' E 015°16'10513.0
2015-Jul-29 16:25N 55°04' E 018°16'1113.3
2015-Jul-29 15:34N 55°01' E 018°35'1414.2
2015-Jul-29 14:34N 54°53' E 018°56'1413.5
2015-Jul-29 13:34N 54°40' E 018°58'1313.1
2015-Jul-29 12:34N 54°32' E 018°40'4 3.4
2015-Jul-29 11:27N 54°32' E 018°33'0 0.0
2015-Jul-29 10:33N 54°32' E 018°33'0 0.0
2015-Jul-29 09:33N 54°32' E 018°33'0 0.0
2015-Jul-29 08:33N 54°32' E 018°33'0 0.0
2015-Jul-29 07:33N 54°32' E 018°33'0 0.0
2015-Jul-29 06:33N 54°32' E 018°33'0 0.0
2015-Jul-29 05:33N 54°32' E 018°33'0 0.0
2015-Jul-29 04:33N 54°32' E 018°33'0 0.0
2015-Jul-29 03:33N 54°32' E 018°33'0 0.0
2015-Jul-29 02:33N 54°32' E 018°33'0 0.0
2015-Jul-29 01:33N 54°32' E 018°33'0 0.0
2015-Jul-29 00:33N 54°32' E 018°33'0 0.0
2015-Jul-28 23:33N 54°32' E 018°33'0 0.0
2015-Jul-28 22:33N 54°32' E 018°33'3 2.8
2015-Jul-28 21:34N 54°32' E 018°38'1010.1
2015-Jul-28 20:34N 54°36' E 018°54'1312.6
2015-Jul-28 19:34N 54°49' E 018°56'1313.0
2015-Jul-28 18:33N 54°58' E 018°41'1414.0
2015-Jul-28 17:33N 55°02' E 018°17'11514.0
2015-Jul-28 09:20N 54°39' E 015°02'3512.2
2015-Jul-28 06:29N 54°39' E 014°02'6212.4
2015-Jul-28 01:29N 54°30' E 012°16'1112.1
2015-Jul-28 00:33N 54°24' E 011°59'1413.5
2015-Jul-27 23:33N 54°27' E 011°37'1313.4
2015-Jul-27 22:33N 54°33' E 011°16'1312.6
2015-Jul-27 21:33N 54°35' E 010°54'1413.8
2015-Jul-27 20:33N 54°33' E 010°31'1111.5
2015-Jul-27 19:34N 54°27' E 010°14'6 5.6
2015-Jul-27 18:33N 54°22' E 010°09'4 3.9
2015-Jul-27 17:33N 54°22' E 010°02'8 7.7
2015-Jul-27 16:33N 54°22' E 009°49'5 4.7
2015-Jul-27 15:33N 54°19' E 009°43'5 4.9
2015-Jul-27 14:33N 54°15' E 009°37'8 7.8
2015-Jul-27 13:33N 54°10' E 009°26'7 7.0
2015-Jul-27 12:33N 54°05' E 009°19'7 7.2
2015-Jul-27 11:33N 53°58' E 009°15'2 2.0
2015-Jul-27 10:33N 53°56' E 009°13'4 3.6
2015-Jul-27 09:33N 53°54' E 009°09'2 2.1
2015-Jul-27 08:33N 53°53' E 009°05'2 1.7
2015-Jul-27 07:33N 53°52' E 009°03'1312.6
2015-Jul-27 06:33N 53°53' E 008°42'1413.8
2015-Jul-27 05:33N 53°59' E 008°21'1312.9
2015-Jul-27 04:33N 53°58' E 007°59'1413.5
2015-Jul-27 03:33N 53°55' E 007°36'1313.4
2015-Jul-27 02:33N 53°52' E 007°14'2713.0
2015-Jul-27 00:26N 53°46' E 006°29'1112.5
2015-Jul-26 23:33N 53°43' E 006°11'1211.9
2015-Jul-26 22:33N 53°40' E 005°52'1211.9
2015-Jul-26 21:33N 53°36' E 005°33'1211.8
2015-Jul-26 20:33N 53°32' E 005°14'1211.9
2015-Jul-26 19:34N 53°28' E 004°55'1211.6
2015-Jul-26 18:33N 53°21' E 004°40'1412.6
2015-Jul-26 17:28N 53°09' E 004°30'1112.6
2015-Jul-26 16:34N 52°58' E 004°20'1312.5
2015-Jul-26 15:33N 52°47' E 004°11'1312.7
2015-Jul-26 14:33N 52°37' E 003°60'1313.1
2015-Jul-26 13:33N 52°24' E 003°53'1313.3
2015-Jul-26 12:33N 52°11' E 003°54'1110.8
2015-Jul-26 11:34N 52°01' E 003°59'1312.8
2015-Jul-26 10:33N 51°54' E 004°17'1 1.2
2015-Jul-26 09:31N 51°53' E 004°16'0 0.0
2015-Jul-26 08:25N 51°53' E 004°16'0 0.0
2015-Jul-26 07:31N 51°53' E 004°16'0 0.0
2015-Jul-26 06:13N 51°53' E 004°16'0 0.0
2015-Jul-26 05:25N 51°53' E 004°16'0 0.0
2015-Jul-26 04:13N 51°53' E 004°16'0 0.0
2015-Jul-26 03:25N 51°53' E 004°16'0 0.0
2015-Jul-26 02:31N 51°53' E 004°16'0 0.0
2015-Jul-26 01:25N 51°53' E 004°16'0 0.0
2015-Jul-26 00:31N 51°53' E 004°16'0 0.0
2015-Jul-25 23:31N 51°53' E 004°16'0 0.0
2015-Jul-25 22:13N 51°53' E 004°16'0 0.0
2015-Jul-25 20:31N 51°53' E 004°16'0 0.0
2015-Jul-25 18:31N 51°53' E 004°16'0 0.0
2015-Jul-25 17:28N 51°53' E 004°16'0 0.0
2015-Jul-25 16:31N 51°53' E 004°16'0 0.0
2015-Jul-25 15:31N 51°53' E 004°16'0 0.0
2015-Jul-25 14:31N 51°53' E 004°16'0 0.0
2015-Jul-25 13:31N 51°53' E 004°16'0 0.0
2015-Jul-25 12:31N 51°53' E 004°16'0 0.0
2015-Jul-25 11:25N 51°53' E 004°16'0 0.0
2015-Jul-25 10:32N 51°53' E 004°16'0 0.4
2015-Jul-25 09:33N 51°53' E 004°17'6 5.5
2015-Jul-25 08:34N 51°57' E 004°10'1212.4
2015-Jul-25 07:34N 51°60' E 003°51'1413.5
2015-Jul-25 06:33N 51°57' E 003°29'5112.7
2015-Jul-25 02:33N 51°31' E 002°18'1211.8
2015-Jul-25 01:33N 51°21' E 002°10'1211.6
2015-Jul-25 00:33N 51°12' E 001°58'1211.8
2015-Jul-24 23:33N 51°05' E 001°43'1211.8
2015-Jul-24 22:33N 50°56' E 001°30'9411.8
2015-Jul-24 14:33N 49°53' W 000°20'1313.4
2015-Jul-24 13:33N 49°40' W 000°21'1211.7
2015-Jul-24 12:33N 49°30' W 000°10'1312.7
2015-Jul-24 11:33N 49°26' E 000°08'1313.0
2015-Jul-24 10:33N 49°28' E 000°28'3 3.0
2015-Jul-24 09:29N 49°28' E 000°33'0 0.0
2015-Jul-24 08:32N 49°28' E 000°33'0 0.0
2015-Jul-24 07:32N 49°28' E 000°33'0 0.0
2015-Jul-24 06:32N 49°28' E 000°33'0 0.0
2015-Jul-24 05:32N 49°28' E 000°33'  

Dump ship's entire track history